createdAt,value
2019-04-23T00:00:25.869Z,17.70
2019-04-23T00:05:41.453Z,17.50
2019-04-23T00:10:33.491Z,17.60
2019-04-23T00:13:12.953Z,17.60
2019-04-23T00:15:58.612Z,17.60
2019-04-23T00:18:30.123Z,17.70
2019-04-23T00:21:11.786Z,17.60
2019-04-23T00:23:44.930Z,17.60
2019-04-23T00:26:19.853Z,17.50
2019-04-23T00:28:51.983Z,17.50
2019-04-23T00:33:57.429Z,17.60
2019-04-23T00:36:32.466Z,17.50
2019-04-23T00:39:01.586Z,17.40
2019-04-23T00:41:36.294Z,17.30
2019-04-23T00:44:38.108Z,17.30
2019-04-23T00:46:50.802Z,17.20
2019-04-23T00:49:22.605Z,17.20
2019-04-23T00:52:00.227Z,17.20
2019-04-23T00:54:25.755Z,17.20
2019-04-23T00:57:08.930Z,17.20
2019-04-23T00:59:41.247Z,17.30
2019-04-23T01:02:01.004Z,17.10
2019-04-23T01:04:31.647Z,17.10
2019-04-23T01:07:04.488Z,17.10
2019-04-23T01:09:38.661Z,17.00
2019-04-23T01:12:09.260Z,17.00
2019-04-23T01:14:34.878Z,16.90
2019-04-23T01:17:08.821Z,16.90
2019-04-23T01:19:37.123Z,16.90
2019-04-23T01:21:49.794Z,17.00
2019-04-23T01:24:27.301Z,16.80
2019-04-23T01:27:51.124Z,16.70
2019-04-23T01:35:15.152Z,16.90
2019-04-23T01:37:36.943Z,16.80
2019-04-23T01:40:03.771Z,16.70
2019-04-23T01:42:42.003Z,16.60
2019-04-23T01:45:14.972Z,16.50
2019-04-23T01:47:39.023Z,16.40
2019-04-23T01:52:45.684Z,16.30
2019-04-23T01:55:09.353Z,16.30
2019-04-23T02:00:18.756Z,16.40
2019-04-23T02:02:44.315Z,16.50
2019-04-23T02:05:16.022Z,16.40
2019-04-23T02:07:43.864Z,16.20
2019-04-23T02:12:49.331Z,16.10
2019-04-23T02:17:47.775Z,16.00
2019-04-23T02:20:17.801Z,16.00
2019-04-23T02:22:54.245Z,16.00
2019-04-23T02:25:34.498Z,16.10
2019-04-23T02:28:03.148Z,16.10
2019-04-23T02:33:10.712Z,15.80
2019-04-23T02:35:45.293Z,15.70
2019-04-23T02:45:42.724Z,15.70
2019-04-23T02:48:10.935Z,15.60
2019-04-23T02:50:39.321Z,15.80
2019-04-23T02:53:22.157Z,15.70
2019-04-23T02:58:11.002Z,15.60
2019-04-23T03:00:38.905Z,15.60
2019-04-23T03:05:46.719Z,15.30
2019-04-23T03:08:08.352Z,15.20
2019-04-23T03:21:15.642Z,15.10
2019-04-23T03:26:19.952Z,15.10
2019-04-23T03:34:42.586Z,15.40
2019-04-23T03:38:45.707Z,15.10
2019-04-23T03:41:19.051Z,15.20
2019-04-23T03:43:39.131Z,15.30
2019-04-23T03:46:16.260Z,15.20
2019-04-23T03:48:47.265Z,15.10
2019-04-23T03:51:11.640Z,15.00
2019-04-23T03:56:22.862Z,14.80
2019-04-23T03:58:42.540Z,14.70
2019-04-23T04:01:11.908Z,14.60
2019-04-23T04:06:33.720Z,14.60
2019-04-23T04:14:12.103Z,14.60
2019-04-23T04:16:36.498Z,14.60
2019-04-23T04:19:16.692Z,14.40
2019-04-23T04:21:58.544Z,14.40
2019-04-23T04:24:17.273Z,14.50
2019-04-23T04:26:46.693Z,14.50
2019-04-23T04:35:12.639Z,14.30
2019-04-23T04:37:16.757Z,14.30
2019-04-23T04:39:02.947Z,14.30
2019-04-23T04:41:46.270Z,14.30
2019-04-23T04:49:15.010Z,14.40
2019-04-23T04:51:49.339Z,14.40
2019-04-23T04:59:11.587Z,14.30
2019-04-23T05:01:52.226Z,14.30
2019-04-23T05:04:24.764Z,14.30
2019-04-23T05:06:51.212Z,14.30
2019-04-23T05:14:13.365Z,14.30
2019-04-23T05:16:43.193Z,14.30
2019-04-23T05:19:35.404Z,14.40
2019-04-23T05:24:16.301Z,14.40
2019-04-23T05:26:39.610Z,14.50
2019-04-23T05:29:11.906Z,14.50
2019-04-23T05:31:43.091Z,14.50
2019-04-23T05:34:19.721Z,14.50
2019-04-23T05:36:47.768Z,14.40
2019-04-23T05:39:24.325Z,14.40
2019-04-23T05:41:45.238Z,14.30
2019-04-23T05:44:21.627Z,14.50
2019-04-23T05:46:47.040Z,14.60
2019-04-23T05:49:17.954Z,14.60
2019-04-23T05:57:00.247Z,14.50
2019-04-23T06:04:24.751Z,14.70
2019-04-23T06:09:27.999Z,15.00
2019-04-23T06:14:30.777Z,14.90
2019-04-23T06:17:00.477Z,15.00
2019-04-23T06:19:22.725Z,15.10
2019-04-23T06:22:13.961Z,15.20
2019-04-23T06:24:44.320Z,15.30
2019-04-23T06:27:00.738Z,15.40
2019-04-23T06:29:37.643Z,15.40
2019-04-23T06:34:31.147Z,15.40
2019-04-23T06:36:58.893Z,15.40
2019-04-23T06:39:42.770Z,15.40
2019-04-23T06:42:17.980Z,15.50
2019-04-23T06:44:45.767Z,15.60
2019-04-23T06:47:16.742Z,15.70
2019-04-23T06:49:54.541Z,15.80
2019-04-23T06:52:18.691Z,16.00
2019-04-23T06:54:56.525Z,16.10
2019-04-23T06:57:23.840Z,16.10
2019-04-23T06:59:50.660Z,16.10
2019-04-23T07:02:22.145Z,16.20
2019-04-23T07:04:56.875Z,16.20
2019-04-23T07:09:56.229Z,16.20
2019-04-23T07:12:22.124Z,16.40
2019-04-23T07:17:18.242Z,16.50
2019-04-23T07:19:58.153Z,16.70
2019-04-23T07:22:23.628Z,16.70
2019-04-23T07:24:57.621Z,16.60
2019-04-23T07:27:26.038Z,16.60
2019-04-23T07:30:03.248Z,16.80
2019-04-23T07:32:23.676Z,16.90
2019-04-23T07:35:00.921Z,17.00
2019-04-23T07:37:27.973Z,17.00
2019-04-23T07:40:26.323Z,16.80
2019-04-23T07:43:02.945Z,16.70
2019-04-23T07:50:48.016Z,17.00
2019-04-23T07:53:35.813Z,17.00
2019-04-23T08:03:27.343Z,17.60
2019-04-23T08:06:06.162Z,17.80
2019-04-23T08:08:38.123Z,17.70
2019-04-23T08:11:29.882Z,17.90
2019-04-23T08:13:47.685Z,18.00
2019-04-23T08:16:26.077Z,18.00
2019-04-23T08:21:16.331Z,18.40
2019-04-23T08:23:56.915Z,18.60
2019-04-23T08:26:34.753Z,18.70
2019-04-23T08:29:06.513Z,18.80
2019-04-23T08:31:38.281Z,19.00
2019-04-23T08:34:25.291Z,19.00
2019-04-23T08:36:35.809Z,19.10
2019-04-23T08:39:04.236Z,19.40
2019-04-23T08:41:46.031Z,19.40
2019-04-23T08:44:27.740Z,19.80
2019-04-23T08:47:10.805Z,19.90
2019-04-23T08:49:48.790Z,20.10
2019-04-23T08:52:10.052Z,20.00
2019-04-23T08:57:10.926Z,20.00
2019-04-23T08:59:45.209Z,20.10
2019-04-23T09:02:25.699Z,20.20
2019-04-23T09:04:49.506Z,20.30
2019-04-23T09:09:48.726Z,20.80
2019-04-23T09:12:07.738Z,21.20
2019-04-23T09:14:42.137Z,21.40
2019-04-23T09:17:11.242Z,21.60
2019-04-23T09:19:56.246Z,22.00
2019-04-23T09:22:25.158Z,22.20
2019-04-23T09:24:48.853Z,22.50
2019-04-23T09:27:16.219Z,22.90
2019-04-23T09:30:00.319Z,23.00
2019-04-23T09:32:31.075Z,23.10
2019-04-23T09:35:00.794Z,23.30
2019-04-23T09:37:26.511Z,23.50
2019-04-23T09:40:09.997Z,23.70
2019-04-23T09:42:48.862Z,23.70
2019-04-23T09:45:23.161Z,23.90
2019-04-23T09:48:13.886Z,24.00
2019-04-23T09:50:38.193Z,24.40
2019-04-23T09:58:15.462Z,26.40
2019-04-23T10:00:43.299Z,27.10
2019-04-23T10:03:04.936Z,27.60
2019-04-23T10:05:31.108Z,28.30
2019-04-23T10:07:59.890Z,29.30
2019-04-23T10:10:20.688Z,29.60
2019-04-23T10:12:50.188Z,29.60
2019-04-23T10:15:24.936Z,29.60
2019-04-23T10:17:50.178Z,29.30
2019-04-23T10:20:20.529Z,29.20
2019-04-23T10:22:50.485Z,29.80
2019-04-23T10:25:19.427Z,30.40
2019-04-23T10:27:56.533Z,31.10
2019-04-23T10:30:19.617Z,31.40
2019-04-23T10:32:49.494Z,31.40
2019-04-23T10:35:28.928Z,31.30
2019-04-23T10:37:55.975Z,30.40
2019-04-23T10:40:26.181Z,29.30
2019-04-23T10:42:51.784Z,29.10
2019-04-23T10:45:42.532Z,29.60
2019-04-23T10:51:25.619Z,30.50
2019-04-23T10:54:16.259Z,31.10
2019-04-23T10:56:42.540Z,31.30
2019-04-23T10:59:03.296Z,31.90
2019-04-23T11:01:50.094Z,32.50
2019-04-23T11:07:03.047Z,32.20
2019-04-23T11:09:29.310Z,31.50
2019-04-23T11:11:54.728Z,31.30
2019-04-23T11:14:27.101Z,31.40
2019-04-23T11:16:59.724Z,30.70
2019-04-23T11:19:23.763Z,30.80
2019-04-23T11:21:58.477Z,30.80
2019-04-23T11:24:36.244Z,30.60
2019-04-23T11:26:55.790Z,30.10
2019-04-23T11:29:28.045Z,29.40
2019-04-23T11:32:06.479Z,29.30
2019-04-23T11:37:07.860Z,29.90
2019-04-23T11:39:32.707Z,31.20
2019-04-23T11:42:12.648Z,32.70
2019-04-23T11:49:51.558Z,36.10
2019-04-23T11:54:39.433Z,37.70
2019-04-23T11:57:22.162Z,38.00
2019-04-23T11:59:36.039Z,37.80
2019-04-23T12:02:07.482Z,37.70
2019-04-23T12:07:31.163Z,37.60
2019-04-23T12:12:28.036Z,38.30
2019-04-23T12:15:07.292Z,38.00
2019-04-23T12:17:42.358Z,36.90
2019-04-23T12:20:27.137Z,37.00
2019-04-23T12:25:17.381Z,36.20
2019-04-23T12:27:44.015Z,36.50
2019-04-23T12:35:19.465Z,35.10
2019-04-23T12:42:54.053Z,34.00
2019-04-23T12:50:42.421Z,34.60
2019-04-23T12:55:26.124Z,36.80
2019-04-23T12:57:52.293Z,37.80
2019-04-23T13:02:48.680Z,37.10
2019-04-23T13:05:31.200Z,37.40
2019-04-23T13:07:53.996Z,37.30
2019-04-23T13:10:30.042Z,37.00
2019-04-23T13:20:28.053Z,34.30
2019-04-23T13:23:03.173Z,33.60
2019-04-23T13:25:39.837Z,34.00
2019-04-23T13:28:06.845Z,33.10
2019-04-23T13:33:24.056Z,32.60
2019-04-23T13:40:47.514Z,33.20
2019-04-23T13:43:19.176Z,33.70
2019-04-23T13:45:59.912Z,33.50
2019-04-23T13:53:36.941Z,32.70
2019-04-23T13:55:47.019Z,32.70
2019-04-23T14:03:30.237Z,33.20
2019-04-23T14:06:01.216Z,33.10
2019-04-23T14:11:05.513Z,32.40
2019-04-23T14:16:03.655Z,33.50
2019-04-23T14:21:14.115Z,34.30
2019-04-23T14:23:55.235Z,34.50
2019-04-23T14:26:18.824Z,34.60
2019-04-23T14:31:07.860Z,35.10
2019-04-23T14:33:50.669Z,35.90
2019-04-23T14:36:10.869Z,35.90
2019-04-23T14:38:41.374Z,35.00
2019-04-23T14:41:21.235Z,35.40
2019-04-23T14:43:48.801Z,35.70
2019-04-23T14:48:47.985Z,36.00
2019-04-23T14:53:43.865Z,36.80
2019-04-23T14:56:15.718Z,37.50
2019-04-23T14:58:50.584Z,38.90
2019-04-23T15:03:46.896Z,38.90
2019-04-23T15:06:41.137Z,39.00
2019-04-23T15:11:38.824Z,39.60
2019-04-23T15:13:53.951Z,39.00
2019-04-23T15:28:38.109Z,36.40
2019-04-23T15:34:13.904Z,35.10
2019-04-23T15:36:47.019Z,34.50
2019-04-23T15:41:38.558Z,33.90
2019-04-23T15:44:05.611Z,33.80
2019-04-23T15:46:37.061Z,33.70
2019-04-23T15:49:07.171Z,33.40
2019-04-23T15:54:10.863Z,33.00
2019-04-23T15:56:50.020Z,32.80
2019-04-23T15:59:12.838Z,33.20
2019-04-23T16:01:40.567Z,33.20
2019-04-23T16:03:38.266Z,32.60
2019-04-23T16:06:10.332Z,32.60
2019-04-23T16:09:16.311Z,32.00
2019-04-23T16:19:13.743Z,32.80
2019-04-23T16:22:01.590Z,32.60
2019-04-23T16:24:19.528Z,32.60
2019-04-23T16:26:47.448Z,33.00
2019-04-23T16:34:20.950Z,33.30
2019-04-23T16:36:43.786Z,33.40
2019-04-23T16:39:18.633Z,32.90
2019-04-23T16:41:54.631Z,32.70
2019-04-23T16:44:29.939Z,32.20
2019-04-23T16:49:42.357Z,31.20
2019-04-23T16:51:51.781Z,30.90
2019-04-23T16:54:26.628Z,30.20
2019-04-23T16:57:13.302Z,29.50
2019-04-23T17:02:03.542Z,29.00
2019-04-23T17:04:38.962Z,28.30
2019-04-23T17:09:24.603Z,27.80
2019-04-23T17:12:03.042Z,27.10
2019-04-23T17:16:51.616Z,26.50
2019-04-23T17:22:01.080Z,26.30
2019-04-23T17:24:23.092Z,26.20
2019-04-23T17:27:05.474Z,26.10
2019-04-23T17:29:28.270Z,26.00
2019-04-23T17:31:56.676Z,25.90
2019-04-23T17:34:47.377Z,25.80
2019-04-23T17:37:12.393Z,25.60
2019-04-23T17:40:03.584Z,25.30
2019-04-23T17:42:39.320Z,25.00
2019-04-23T17:45:30.956Z,24.80
2019-04-23T17:52:54.880Z,24.50
2019-04-23T17:55:19.629Z,24.40
2019-04-23T18:00:28.404Z,24.00
2019-04-23T18:12:52.517Z,23.30
2019-04-23T18:15:15.502Z,23.20
2019-04-23T18:23:09.766Z,22.60
2019-04-23T18:25:32.352Z,22.40
2019-04-23T18:28:01.776Z,22.30
2019-04-23T18:30:42.857Z,22.30
2019-04-23T18:35:35.797Z,22.00
2019-04-23T18:38:18.563Z,21.80
2019-04-23T18:43:23.957Z,21.50
2019-04-23T18:51:07.756Z,21.30
2019-04-23T18:53:40.624Z,21.20
2019-04-23T18:58:44.734Z,20.90
2019-04-23T19:01:05.112Z,20.80
2019-04-23T19:09:10.418Z,20.90
2019-04-23T19:14:53.926Z,20.80
2019-04-23T19:17:33.342Z,20.80
2019-04-23T19:24:38.991Z,20.80
2019-04-23T19:32:14.198Z,20.70
2019-04-23T19:39:36.877Z,20.60
2019-04-23T19:42:13.847Z,20.60
2019-04-23T19:44:43.418Z,20.50
2019-04-23T19:57:12.000Z,20.40
2019-04-23T19:59:50.709Z,20.40
2019-04-23T20:02:15.177Z,20.40
2019-04-23T20:12:21.471Z,20.10
2019-04-23T20:15:07.404Z,20.00
2019-04-23T20:17:43.181Z,20.00
2019-04-23T20:20:19.654Z,19.80
2019-04-23T20:22:52.117Z,19.80
2019-04-23T20:27:54.241Z,19.50
2019-04-23T20:33:49.886Z,19.40
2019-04-23T20:35:27.755Z,19.50
2019-04-23T20:40:41.599Z,19.40
2019-04-23T20:42:57.226Z,19.30
2019-04-23T20:45:43.213Z,19.20
2019-04-23T20:48:01.699Z,19.20
2019-04-23T20:50:34.480Z,19.20
2019-04-23T20:53:01.361Z,19.30
2019-04-23T20:55:51.048Z,19.30
2019-04-23T20:58:48.125Z,19.30
2019-04-23T21:01:18.638Z,19.20
2019-04-23T21:06:07.139Z,19.20
2019-04-23T21:09:02.691Z,19.10
2019-04-23T21:10:58.199Z,19.10
2019-04-23T21:16:07.935Z,19.10
2019-04-23T21:21:09.391Z,19.10
2019-04-23T21:23:48.070Z,19.10
2019-04-23T21:26:01.973Z,19.00
2019-04-23T21:28:44.477Z,19.00
2019-04-23T21:33:57.528Z,18.90
2019-04-23T21:39:04.413Z,18.70
2019-04-23T21:44:18.331Z,18.70
2019-04-23T21:46:51.012Z,18.70
2019-04-23T21:54:13.288Z,18.80
2019-04-23T21:59:23.146Z,18.80
2019-04-23T22:01:58.879Z,18.80
2019-04-23T22:04:41.469Z,18.70
2019-04-23T22:07:29.383Z,18.70
2019-04-23T22:09:48.407Z,18.70
2019-04-23T22:12:16.949Z,18.60
2019-04-23T22:14:55.355Z,18.60
2019-04-23T22:20:04.124Z,18.50
2019-04-23T22:22:31.983Z,18.50
2019-04-23T22:24:57.711Z,18.50
2019-04-23T22:27:32.869Z,18.50
2019-04-23T22:30:04.757Z,18.50
2019-04-23T22:32:47.626Z,18.50
2019-04-23T22:38:01.053Z,18.40
2019-04-23T22:40:18.484Z,18.40
2019-04-23T22:43:15.045Z,18.40
2019-04-23T22:45:52.551Z,18.30
2019-04-23T22:50:47.450Z,18.20
2019-04-23T22:53:08.134Z,18.20
2019-04-23T22:55:55.490Z,18.20
2019-04-23T22:58:09.659Z,18.10
2019-04-23T23:01:17.511Z,18.10
2019-04-23T23:03:42.001Z,18.10
2019-04-23T23:06:33.210Z,18.10
2019-04-23T23:08:57.487Z,18.00
2019-04-23T23:11:10.087Z,17.90
2019-04-23T23:13:52.216Z,17.80
2019-04-23T23:16:21.322Z,17.80
2019-04-23T23:18:39.067Z,17.80
2019-04-23T23:21:11.878Z,17.80
2019-04-23T23:23:47.797Z,17.80
2019-04-23T23:26:35.532Z,17.70
2019-04-23T23:31:11.639Z,17.60
2019-04-23T23:33:52.021Z,17.60
2019-04-23T23:38:58.438Z,17.60
2019-04-23T23:41:19.905Z,17.60
2019-04-23T23:43:54.983Z,17.50
2019-04-23T23:46:27.718Z,17.60
2019-04-23T23:48:49.924Z,17.50
2019-04-23T23:53:58.648Z,17.40
2019-04-23T23:56:19.404Z,17.40
2019-04-23T23:58:58.606Z,17.40
